createdAt,value
2019-02-05T00:00:28.191Z,2.30
2019-02-05T00:02:57.124Z,2.40
2019-02-05T00:05:25.784Z,2.50
2019-02-05T00:07:54.420Z,2.60
2019-02-05T00:10:23.083Z,2.50
2019-02-05T00:12:51.640Z,2.50
2019-02-05T00:15:20.363Z,2.50
2019-02-05T00:17:49.293Z,2.30
2019-02-05T00:20:17.871Z,2.30
2019-02-05T00:22:46.505Z,2.20
2019-02-05T00:25:15.160Z,2.20
2019-02-05T00:27:43.793Z,2.30
2019-02-05T00:30:16.726Z,2.20
2019-02-05T00:32:45.720Z,2.30
2019-02-05T00:35:14.552Z,2.20
2019-02-05T00:37:43.251Z,2.20
2019-02-05T00:40:14.916Z,2.20
2019-02-05T00:42:43.614Z,2.20
2019-02-05T00:45:17.461Z,2.10
2019-02-05T00:47:46.115Z,2.20
2019-02-05T00:50:16.007Z,2.30
2019-02-05T00:52:44.663Z,2.30
2019-02-05T00:55:15.321Z,2.20
2019-02-05T00:57:44.000Z,2.10
2019-02-05T01:00:15.623Z,2.10
2019-02-05T01:02:44.425Z,2.10
2019-02-05T01:05:13.224Z,2.10
2019-02-05T01:07:41.949Z,2.10
2019-02-05T01:10:11.344Z,2.00
2019-02-05T01:12:40.172Z,2.00
2019-02-05T01:15:15.293Z,1.90
2019-02-05T01:17:43.947Z,1.90
2019-02-05T01:20:15.317Z,1.80
2019-02-05T01:22:44.075Z,1.80
2019-02-05T01:25:12.868Z,1.70
2019-02-05T01:27:41.532Z,1.60
2019-02-05T01:30:13.729Z,1.70
2019-02-05T01:32:42.310Z,1.50
2019-02-05T01:35:11.109Z,1.40
2019-02-05T01:37:39.780Z,1.30
2019-02-05T01:40:11.864Z,1.20
2019-02-05T01:42:40.824Z,1.20
2019-02-05T01:45:12.284Z,1.20
2019-02-05T01:47:40.869Z,1.10
2019-02-05T01:50:12.363Z,1.10
2019-02-05T01:52:40.942Z,1.10
2019-02-05T01:55:11.239Z,1.00
2019-02-05T01:57:40.268Z,1.00
2019-02-05T02:00:14.340Z,1.10
2019-02-05T02:02:43.001Z,1.00
2019-02-05T02:05:11.689Z,1.00
2019-02-05T02:07:40.311Z,1.00
2019-02-05T02:10:17.835Z,0.90
2019-02-05T02:12:46.464Z,0.90
2019-02-05T02:15:15.288Z,0.90
2019-02-05T02:17:43.911Z,0.80
2019-02-05T02:20:17.459Z,0.80
2019-02-05T02:22:47.055Z,0.90
2019-02-05T02:25:16.181Z,0.80
2019-02-05T02:27:44.867Z,0.70
2019-02-05T02:30:28.166Z,0.70
2019-02-05T02:32:56.786Z,0.70
2019-02-05T02:35:25.428Z,0.80
2019-02-05T02:37:54.186Z,0.80
2019-02-05T02:40:23.038Z,0.80
2019-02-05T02:42:51.596Z,0.70
2019-02-05T02:45:20.317Z,0.60
2019-02-05T02:47:48.877Z,0.60
2019-02-05T02:50:21.691Z,0.50
2019-02-05T02:52:51.380Z,0.70
2019-02-05T02:55:20.105Z,0.70
2019-02-05T02:57:48.651Z,0.70
2019-02-05T03:00:19.226Z,0.60
2019-02-05T03:02:47.863Z,0.50
2019-02-05T03:05:18.381Z,0.50
2019-02-05T03:07:47.371Z,0.50
2019-02-05T03:10:24.016Z,0.50
2019-02-05T03:12:52.759Z,0.50
2019-02-05T03:15:21.480Z,0.50
2019-02-05T03:17:50.217Z,0.40
2019-02-05T03:20:18.873Z,0.20
2019-02-05T03:22:47.565Z,0.20
2019-02-05T03:25:19.253Z,0.30
2019-02-05T03:27:47.874Z,0.20
2019-02-05T03:30:18.317Z,0.10
2019-02-05T03:32:46.867Z,0.10
2019-02-05T03:35:15.877Z,0.10
2019-02-05T03:37:44.560Z,0.10
2019-02-05T03:40:16.218Z,0.10
2019-02-05T03:42:44.772Z,0.10
2019-02-05T03:45:13.693Z,0.10
2019-02-05T03:47:42.384Z,0.10
2019-02-05T03:50:11.087Z,0.10
2019-02-05T03:52:42.733Z,0.10
2019-02-05T03:55:29.370Z,0.10
2019-02-05T03:58:25.098Z,0.20
2019-02-05T04:01:17.427Z,0.20
2019-02-05T04:03:54.405Z,0.10
2019-02-05T04:06:55.802Z,0.00
2019-02-05T04:09:36.336Z,0.10
2019-02-05T04:12:22.950Z,0.00
2019-02-05T04:15:03.793Z,-0.10
2019-02-05T04:17:54.701Z,0.00
2019-02-05T04:20:35.136Z,0.00
2019-02-05T04:23:12.449Z,-0.10
2019-02-05T04:25:44.084Z,-0.10
2019-02-05T04:28:38.169Z,-0.20
2019-02-05T04:31:12.779Z,-0.30
2019-02-05T04:33:53.004Z,-0.30
2019-02-05T04:36:33.400Z,-0.30
2019-02-05T04:39:14.058Z,-0.20
2019-02-05T04:41:45.723Z,-0.10
2019-02-05T04:44:28.680Z,0.00
2019-02-05T04:47:08.971Z,0.00
2019-02-05T04:49:49.295Z,0.00
2019-02-05T04:52:50.658Z,-0.10
2019-02-05T04:55:38.869Z,-0.10
2019-02-05T04:58:28.484Z,-0.10
2019-02-05T05:01:18.100Z,-0.10
2019-02-05T05:03:55.479Z,-0.30
2019-02-05T05:06:35.803Z,-0.30
2019-02-05T05:09:23.050Z,-0.20
2019-02-05T05:11:51.700Z,-0.10
2019-02-05T05:14:20.260Z,-0.20
2019-02-05T05:16:48.839Z,-0.20
2019-02-05T05:19:17.855Z,-0.30
2019-02-05T05:21:46.471Z,-0.30
2019-02-05T05:24:15.212Z,-0.30
2019-02-05T05:26:43.830Z,-0.30
2019-02-05T05:29:12.412Z,-0.50
2019-02-05T05:31:41.211Z,-0.40
2019-02-05T05:34:09.877Z,-0.40
2019-02-05T05:36:41.796Z,-0.40
2019-02-05T05:39:10.384Z,-0.40
2019-02-05T05:41:38.938Z,-0.50
2019-02-05T05:44:09.563Z,-0.60
2019-02-05T05:46:37.739Z,-0.50
2019-02-05T05:49:06.392Z,-0.50
2019-02-05T05:51:35.081Z,-0.50
2019-02-05T05:54:03.748Z,-0.50
2019-02-05T05:56:32.301Z,-0.60
2019-02-05T05:59:00.908Z,-0.60
2019-02-05T06:01:29.481Z,-0.60
2019-02-05T06:03:58.080Z,-0.70
2019-02-05T06:06:26.649Z,-0.70
2019-02-05T06:08:55.514Z,-0.60
2019-02-05T06:11:25.082Z,-0.60
2019-02-05T06:13:53.692Z,-0.50
2019-02-05T06:16:22.257Z,-0.50
2019-02-05T06:18:50.860Z,-0.60
2019-02-05T06:21:19.504Z,-0.70
2019-02-05T06:23:48.185Z,-0.70
2019-02-05T06:26:20.060Z,-0.60
2019-02-05T06:28:47.272Z,-0.50
2019-02-05T06:31:15.899Z,-0.50
2019-02-05T06:33:44.476Z,-0.50
2019-02-05T06:36:13.137Z,-0.70
2019-02-05T06:38:44.622Z,-0.70
2019-02-05T06:41:11.998Z,-0.60
2019-02-05T06:43:40.760Z,-0.60
2019-02-05T06:46:09.343Z,-0.60
2019-02-05T06:48:37.912Z,-0.60
2019-02-05T06:51:08.023Z,-0.60
2019-02-05T06:53:36.580Z,-0.50
2019-02-05T06:56:05.437Z,-0.60
2019-02-05T06:58:45.654Z,-0.60
2019-02-05T07:01:04.680Z,-0.70
2019-02-05T07:03:33.311Z,-0.70
2019-02-05T07:06:01.906Z,-0.70
2019-02-05T07:08:30.515Z,-0.70
2019-02-05T07:10:59.180Z,-0.80
2019-02-05T07:13:28.912Z,-0.70
2019-02-05T07:15:58.521Z,-0.60
2019-02-05T07:18:27.066Z,-0.60
2019-02-05T07:20:55.746Z,-0.60
2019-02-05T07:23:24.449Z,-0.60
2019-02-05T07:25:53.180Z,-0.60
2019-02-05T07:28:21.856Z,-0.50
2019-02-05T07:30:50.506Z,-0.60
2019-02-05T07:33:19.333Z,-0.40
2019-02-05T07:35:47.921Z,-0.40
2019-02-05T07:38:16.573Z,-0.30
2019-02-05T07:40:45.151Z,-0.30
2019-02-05T07:43:13.719Z,-0.30
2019-02-05T07:45:42.311Z,-0.30
2019-02-05T07:48:11.012Z,-0.30
2019-02-05T07:50:39.612Z,-0.30
2019-02-05T07:53:08.540Z,-0.20
2019-02-05T07:55:37.117Z,-0.20
2019-02-05T07:58:05.870Z,-0.20
2019-02-05T08:00:34.488Z,-0.20
2019-02-05T08:03:03.081Z,0.00
2019-02-05T08:05:35.597Z,0.10
2019-02-05T08:08:06.477Z,0.20
2019-02-05T08:10:35.104Z,0.30
2019-02-05T08:13:03.771Z,0.30
2019-02-05T08:15:35.344Z,0.30
2019-02-05T08:18:04.875Z,0.40
2019-02-05T08:20:33.519Z,0.50
2019-02-05T08:23:02.218Z,0.50
2019-02-05T08:25:30.864Z,0.60
2019-02-05T08:27:59.827Z,0.80
2019-02-05T08:30:44.551Z,0.90
2019-02-05T08:33:13.428Z,1.00
2019-02-05T08:35:43.817Z,1.00
2019-02-05T08:38:12.775Z,1.10
2019-02-05T08:40:41.705Z,1.20
2019-02-05T08:43:10.379Z,1.30
2019-02-05T08:45:39.578Z,1.40
2019-02-05T08:48:10.619Z,1.50
2019-02-05T08:50:39.514Z,1.50
2019-02-05T08:53:08.176Z,1.60
2019-02-05T08:55:36.808Z,1.70
2019-02-05T08:58:08.240Z,1.80
2019-02-05T09:00:38.934Z,1.90
2019-02-05T09:03:09.328Z,1.90
2019-02-05T09:05:38.217Z,2.00
2019-02-05T09:08:07.158Z,2.10
2019-02-05T09:10:40.670Z,2.30
2019-02-05T09:13:09.702Z,2.30
2019-02-05T09:15:38.349Z,2.40
2019-02-05T09:18:07.486Z,2.30
2019-02-05T09:20:36.142Z,2.30
2019-02-05T09:23:05.352Z,2.40
2019-02-05T09:25:34.109Z,2.50
2019-02-05T09:28:02.668Z,2.60
2019-02-05T09:30:35.932Z,2.80
2019-02-05T09:33:10.076Z,2.90
2019-02-05T09:35:38.679Z,3.10
2019-02-05T09:38:07.393Z,3.30
2019-02-05T09:40:36.049Z,3.40
2019-02-05T09:43:05.148Z,3.40
2019-02-05T09:45:34.276Z,3.50
2019-02-05T09:48:02.912Z,3.60
2019-02-05T09:50:43.740Z,3.60
2019-02-05T09:53:01.967Z,3.80
2019-02-05T09:55:30.560Z,4.00
2019-02-05T09:57:59.255Z,4.20
2019-02-05T10:00:38.885Z,4.30
2019-02-05T10:03:07.856Z,4.30
2019-02-05T10:05:37.087Z,4.30
2019-02-05T10:08:06.100Z,4.30
2019-02-05T10:10:34.853Z,4.50
2019-02-05T10:13:03.593Z,4.60
2019-02-05T10:15:40.667Z,4.70
2019-02-05T10:18:11.080Z,4.80
2019-02-05T10:20:39.750Z,5.00
2019-02-05T10:23:08.947Z,5.00
2019-02-05T10:25:37.896Z,5.10
2019-02-05T10:28:06.788Z,5.10
2019-02-05T10:30:40.799Z,5.00
2019-02-05T10:33:09.596Z,5.10
2019-02-05T10:35:38.321Z,5.20
2019-02-05T10:38:07.038Z,5.30
2019-02-05T10:40:35.764Z,5.70
2019-02-05T10:43:05.070Z,5.90
2019-02-05T10:45:33.869Z,6.10
2019-02-05T10:48:02.894Z,6.30
2019-02-05T10:50:31.628Z,6.40
2019-02-05T10:53:00.187Z,6.40
2019-02-05T10:55:28.768Z,6.70
2019-02-05T10:57:57.498Z,6.80
2019-02-05T11:00:31.112Z,6.90
2019-02-05T11:03:02.145Z,7.20
2019-02-05T11:05:31.540Z,7.30
2019-02-05T11:08:00.210Z,7.20
2019-02-05T11:10:28.902Z,7.20
2019-02-05T11:12:58.246Z,7.30
2019-02-05T11:15:29.059Z,7.50
2019-02-05T11:17:59.989Z,7.50
2019-02-05T11:20:29.746Z,7.50
2019-02-05T11:22:59.663Z,7.60
2019-02-05T11:25:28.352Z,7.60
2019-02-05T11:27:57.012Z,7.50
2019-02-05T11:30:36.843Z,7.50
2019-02-05T11:33:05.544Z,7.30
2019-02-05T11:35:34.387Z,7.50
2019-02-05T11:38:03.196Z,7.70
2019-02-05T11:40:36.529Z,7.80
2019-02-05T11:43:05.341Z,7.90
2019-02-05T11:45:34.432Z,7.90
2019-02-05T11:48:07.216Z,8.00
2019-02-05T11:50:36.152Z,8.00
2019-02-05T11:53:04.974Z,8.00
2019-02-05T11:55:34.669Z,8.10
2019-02-05T11:58:03.414Z,8.20
2019-02-05T12:00:39.788Z,8.20
2019-02-05T12:03:09.728Z,8.30
2019-02-05T12:05:38.600Z,8.20
2019-02-05T12:08:07.929Z,8.20
2019-02-05T12:10:36.612Z,8.30
2019-02-05T12:13:05.369Z,8.30
2019-02-05T12:15:33.994Z,8.40
2019-02-05T12:18:02.712Z,8.30
2019-02-05T12:20:31.479Z,8.30
2019-02-05T12:23:00.716Z,8.30
2019-02-05T12:25:29.347Z,8.30
2019-02-05T12:27:58.000Z,8.40
2019-02-05T12:30:43.827Z,8.40
2019-02-05T12:33:03.009Z,8.40
2019-02-05T12:35:31.654Z,8.40
2019-02-05T12:38:00.391Z,8.60
2019-02-05T12:40:29.201Z,8.60
2019-02-05T12:42:58.379Z,8.60
2019-02-05T12:45:32.589Z,8.70
2019-02-05T12:48:01.305Z,8.70
2019-02-05T12:50:43.260Z,8.70
2019-02-05T12:53:11.985Z,8.70
2019-02-05T12:55:40.677Z,8.80
2019-02-05T12:58:09.321Z,8.80
2019-02-05T13:00:40.596Z,8.80
2019-02-05T13:03:10.132Z,8.50
2019-02-05T13:05:38.998Z,8.60
2019-02-05T13:08:07.913Z,8.50
2019-02-05T13:10:41.616Z,8.50
2019-02-05T13:13:10.507Z,8.60
2019-02-05T13:15:39.216Z,8.70
2019-02-05T13:18:07.879Z,8.80
2019-02-05T13:20:37.004Z,8.70
2019-02-05T13:23:06.596Z,8.80
2019-02-05T13:25:35.316Z,8.70
2019-02-05T13:28:05.805Z,8.60
2019-02-05T13:30:35.821Z,8.60
2019-02-05T13:33:05.520Z,8.50
2019-02-05T13:35:34.460Z,8.50
2019-02-05T13:38:03.351Z,8.60
2019-02-05T13:40:31.928Z,8.70
2019-02-05T13:43:00.619Z,8.60
2019-02-05T13:45:31.742Z,8.60
2019-02-05T13:48:00.734Z,8.50
2019-02-05T13:50:33.357Z,8.50
2019-02-05T13:53:02.203Z,8.40
2019-02-05T13:55:33.571Z,8.50
2019-02-05T13:58:02.349Z,8.40
2019-02-05T14:00:45.628Z,8.40
2019-02-05T14:03:14.261Z,8.40
2019-02-05T14:05:43.594Z,8.40
2019-02-05T14:08:12.281Z,8.30
2019-02-05T14:10:42.684Z,8.30
2019-02-05T14:13:11.300Z,8.30
2019-02-05T14:15:42.689Z,8.30
2019-02-05T14:18:11.779Z,8.20
2019-02-05T14:20:40.497Z,8.30
2019-02-05T14:23:09.120Z,8.30
2019-02-05T14:25:37.790Z,8.40
2019-02-05T14:28:06.472Z,8.40
2019-02-05T14:30:38.131Z,8.40
2019-02-05T14:33:06.887Z,8.40
2019-02-05T14:35:35.609Z,8.30
2019-02-05T14:38:05.506Z,8.40
2019-02-05T14:40:34.096Z,8.40
2019-02-05T14:43:02.721Z,8.50
2019-02-05T14:45:31.453Z,8.50
2019-02-05T14:48:00.372Z,8.50
2019-02-05T14:50:31.663Z,8.50
2019-02-05T14:53:00.352Z,8.50
2019-02-05T14:55:29.004Z,8.50
2019-02-05T14:57:57.797Z,8.50
2019-02-05T15:00:30.846Z,8.50
2019-02-05T15:03:01.977Z,8.40
2019-02-05T15:05:29.989Z,8.40
2019-02-05T15:07:58.635Z,8.40
2019-02-05T15:10:27.338Z,8.40
2019-02-05T15:12:56.080Z,8.40
2019-02-05T15:15:29.014Z,8.40
2019-02-05T15:17:58.043Z,8.30
2019-02-05T15:20:37.602Z,8.30
2019-02-05T15:23:06.916Z,8.30
2019-02-05T15:25:35.616Z,8.40
2019-02-05T15:28:04.631Z,8.30
2019-02-05T15:30:38.123Z,8.30
2019-02-05T15:33:13.239Z,8.30
2019-02-05T15:35:43.503Z,8.30
2019-02-05T15:38:12.088Z,8.20
2019-02-05T15:40:40.711Z,8.20
2019-02-05T15:43:09.295Z,8.10
2019-02-05T15:45:37.989Z,8.00
2019-02-05T15:48:06.572Z,8.00
2019-02-05T15:50:35.132Z,8.00
2019-02-05T15:53:03.783Z,8.10
2019-02-05T15:55:32.412Z,8.00
2019-02-05T15:58:01.296Z,8.00
2019-02-05T16:00:29.993Z,7.90
2019-02-05T16:02:58.712Z,8.00
2019-02-05T16:05:27.273Z,7.90
2019-02-05T16:07:55.851Z,7.90
2019-02-05T16:10:25.551Z,7.80
2019-02-05T16:12:54.214Z,7.80
2019-02-05T16:15:22.847Z,7.70
2019-02-05T16:17:51.501Z,7.70
2019-02-05T16:20:21.692Z,7.80
2019-02-05T16:22:50.816Z,7.60
2019-02-05T16:25:19.648Z,7.70
2019-02-05T16:27:48.304Z,7.70
2019-02-05T16:30:23.152Z,7.50
2019-02-05T16:32:51.812Z,7.40
2019-02-05T16:35:20.370Z,7.30
2019-02-05T16:37:49.197Z,7.30
2019-02-05T16:40:20.291Z,7.30
2019-02-05T16:42:48.870Z,7.30
2019-02-05T16:45:28.183Z,7.40
2019-02-05T16:47:56.910Z,7.30
2019-02-05T16:50:40.118Z,7.20
2019-02-05T16:53:09.436Z,7.20
2019-02-05T16:55:38.063Z,7.20
2019-02-05T16:58:07.379Z,7.10
2019-02-05T17:00:36.976Z,7.00
2019-02-05T17:03:06.499Z,6.90
2019-02-05T17:05:37.858Z,6.90
2019-02-05T17:08:06.892Z,6.90
2019-02-05T17:10:35.457Z,6.90
2019-02-05T17:13:04.881Z,6.90
2019-02-05T17:15:33.507Z,6.90
2019-02-05T17:18:02.233Z,6.90
2019-02-05T17:20:32.416Z,6.80
2019-02-05T17:23:01.153Z,6.80
2019-02-05T17:25:30.064Z,6.70
2019-02-05T17:28:00.466Z,6.60
2019-02-05T17:30:37.279Z,6.50
2019-02-05T17:33:06.322Z,6.60
2019-02-05T17:35:35.497Z,6.50
2019-02-05T17:38:06.758Z,6.40
2019-02-05T17:40:35.507Z,6.40
2019-02-05T17:43:04.904Z,6.40
2019-02-05T17:45:38.916Z,6.30
2019-02-05T17:48:11.012Z,6.10
2019-02-05T17:50:39.662Z,5.90
2019-02-05T17:53:08.213Z,5.90
2019-02-05T17:55:36.872Z,5.90
2019-02-05T17:58:06.072Z,5.80
2019-02-05T18:00:42.452Z,5.80
2019-02-05T18:03:11.075Z,5.80
2019-02-05T18:05:39.881Z,5.80
2019-02-05T18:08:08.409Z,5.70
2019-02-05T18:10:37.000Z,5.60
2019-02-05T18:13:05.891Z,5.50
2019-02-05T18:15:37.085Z,5.40
2019-02-05T18:18:06.683Z,5.30
2019-02-05T18:20:35.711Z,5.10
2019-02-05T18:23:05.207Z,5.10
2019-02-05T18:25:33.792Z,4.80
2019-02-05T18:28:02.422Z,4.80
2019-02-05T18:30:33.240Z,4.70
2019-02-05T18:33:05.527Z,4.80
2019-02-05T18:35:32.228Z,4.70
2019-02-05T18:38:01.992Z,4.50
2019-02-05T18:40:30.648Z,4.40
2019-02-05T18:42:59.264Z,4.30
2019-02-05T18:45:27.852Z,4.30
2019-02-05T18:47:56.411Z,4.20
2019-02-05T18:50:29.165Z,4.10
2019-02-05T18:52:58.293Z,4.10
2019-02-05T18:55:41.560Z,3.90
2019-02-05T18:58:10.254Z,3.90
2019-02-05T19:00:41.912Z,3.60
2019-02-05T19:03:15.421Z,3.40
2019-02-05T19:05:40.976Z,3.40
2019-02-05T19:08:10.263Z,3.50
2019-02-05T19:10:38.979Z,3.40
2019-02-05T19:13:07.773Z,3.40
2019-02-05T19:15:40.733Z,3.40
2019-02-05T19:18:10.524Z,3.40
2019-02-05T19:20:39.090Z,3.30
2019-02-05T19:23:09.622Z,3.30
2019-02-05T19:25:46.040Z,3.10
2019-02-05T19:28:28.023Z,3.00
2019-02-05T19:30:58.323Z,2.90
2019-02-05T19:33:27.657Z,2.80
2019-02-05T19:35:56.316Z,2.90
2019-02-05T19:38:24.879Z,3.00
2019-02-05T19:40:57.604Z,2.90
2019-02-05T19:43:23.856Z,2.90
2019-02-05T19:46:05.580Z,2.80
2019-02-05T19:48:35.786Z,2.80
2019-02-05T19:51:04.983Z,2.80
2019-02-05T19:53:33.640Z,2.60
2019-02-05T19:56:02.496Z,2.60
2019-02-05T19:58:31.391Z,2.60
2019-02-05T20:00:59.965Z,2.50
2019-02-05T20:03:38.394Z,2.40
2019-02-05T20:05:58.824Z,2.30
2019-02-05T20:08:27.520Z,2.40
2019-02-05T20:10:56.076Z,2.50
2019-02-05T20:13:24.660Z,2.40
2019-02-05T20:15:53.520Z,2.20
2019-02-05T20:18:22.107Z,2.30
2019-02-05T20:20:50.671Z,2.30
2019-02-05T20:23:19.268Z,2.10
2019-02-05T20:25:47.827Z,2.30
2019-02-05T20:28:16.493Z,2.20
2019-02-05T20:30:45.050Z,2.20
2019-02-05T20:33:13.845Z,2.20
2019-02-05T20:35:42.406Z,2.20
2019-02-05T20:38:11.133Z,2.00
2019-02-05T20:40:39.744Z,1.90
2019-02-05T20:43:08.348Z,1.90
2019-02-05T20:45:36.903Z,1.90
2019-02-05T20:48:06.536Z,1.80
2019-02-05T20:50:35.549Z,1.90
2019-02-05T20:53:13.456Z,2.00
2019-02-05T20:55:35.036Z,2.00
2019-02-05T20:58:03.861Z,2.00
2019-02-05T21:00:33.059Z,1.90
2019-02-05T21:03:01.715Z,1.80
2019-02-05T21:05:30.347Z,1.70
2019-02-05T21:07:59.200Z,1.60
2019-02-05T21:10:29.304Z,1.70
2019-02-05T21:12:57.962Z,1.60
2019-02-05T21:15:26.755Z,1.50
2019-02-05T21:17:55.619Z,1.70
2019-02-05T21:20:33.937Z,1.60
2019-02-05T21:23:02.524Z,1.70
2019-02-05T21:25:31.262Z,1.70
2019-02-05T21:27:59.907Z,1.60
2019-02-05T21:30:28.813Z,1.60
2019-02-05T21:32:57.399Z,1.50
2019-02-05T21:35:25.966Z,1.50
2019-02-05T21:37:54.599Z,1.50
2019-02-05T21:40:27.179Z,1.40
2019-02-05T21:42:55.879Z,1.40
2019-02-05T21:45:30.402Z,1.30
2019-02-05T21:47:58.956Z,1.40
2019-02-05T21:50:27.548Z,1.40
2019-02-05T21:52:56.313Z,1.50
2019-02-05T21:55:28.460Z,1.50
2019-02-05T21:57:57.270Z,1.40
2019-02-05T22:00:36.073Z,1.40
2019-02-05T22:03:06.267Z,1.40
2019-02-05T22:05:34.842Z,1.40
2019-02-05T22:08:04.037Z,1.30
2019-02-05T22:10:32.643Z,1.30
2019-02-05T22:13:01.182Z,1.20
2019-02-05T22:15:30.241Z,1.20
2019-02-05T22:17:58.872Z,1.10
2019-02-05T22:20:28.801Z,1.10
2019-02-05T22:22:57.459Z,1.10
2019-02-05T22:25:29.023Z,1.30
2019-02-05T22:27:57.654Z,1.30
2019-02-05T22:30:34.078Z,1.40
2019-02-05T22:33:02.873Z,1.20
2019-02-05T22:35:31.460Z,1.20
2019-02-05T22:38:00.087Z,1.20
2019-02-05T22:40:28.775Z,1.20
2019-02-05T22:42:57.376Z,1.10
2019-02-05T22:45:30.983Z,0.90
2019-02-05T22:47:59.608Z,0.80
2019-02-05T22:50:30.709Z,1.00
2019-02-05T22:52:59.711Z,1.00
2019-02-05T22:55:28.367Z,1.00
2019-02-05T22:57:56.999Z,1.00
2019-02-05T23:00:50.699Z,1.00
2019-02-05T23:03:24.995Z,1.00
2019-02-05T23:06:08.556Z,1.00
2019-02-05T23:08:37.180Z,1.00
2019-02-05T23:11:35.785Z,1.00
2019-02-05T23:14:04.776Z,1.00
2019-02-05T23:16:33.365Z,0.90
2019-02-05T23:19:01.999Z,1.00
2019-02-05T23:21:30.728Z,1.00
2019-02-05T23:23:59.489Z,0.90
2019-02-05T23:26:28.144Z,0.90
2019-02-05T23:28:56.772Z,0.90
2019-02-05T23:31:25.372Z,0.80
2019-02-05T23:33:53.928Z,0.60
2019-02-05T23:36:22.557Z,0.60
2019-02-05T23:38:51.141Z,0.50
2019-02-05T23:41:19.693Z,0.50
2019-02-05T23:43:48.284Z,0.60
2019-02-05T23:46:16.833Z,0.60
2019-02-05T23:48:45.415Z,0.60
2019-02-05T23:51:13.971Z,0.60
2019-02-05T23:53:42.559Z,0.50
2019-02-05T23:56:11.476Z,0.60
2019-02-05T23:58:40.060Z,0.60
